METAR Data
IDs: Format: Raw Decoded Include TAF

Data at: 1020 UTC 22 Oct 2018

PFKW 220956Z AUTO 08007KT 10SM SCT065 BKN120 06/03 A2923 RMK AO2 RAE15 SLP897 P0000 T00560033
PFKW 220856Z AUTO 08010KT 10SM -RA BKN060 OVC080 06/04 A2921 RMK AO2 RAE20B36 SLP891 P0000 60000 T00560039 400560011 53015
PFKW 220756Z AUTO 07008KT 10SM -RA FEW055 SCT065 OVC085 05/03 A2919 RMK AO2 RAE09B35 SLP885 P0000 T00500033
PFKW 220656Z AUTO 04007KT 10SM -RA OVC070 05/03 A2918 RMK AO2 RAE03B26 SLP881 P0000 T00500028
PFKW 220456Z AUTO 05012KT 10SM -RA BKN060 OVC075 04/02 A2916 RMK AO2 RAE0357B50 SLP873 P0000 T00390022
PFKW 220356Z AUTO 05013KT 10SM -RA BKN070 OVC080 03/02 A2915 RMK AO2 SLP871 P0000 T00330022
PFKW 220256Z AUTO 03014KT 10SM -RA BKN060 04/02 A2915 RMK AO2 RAB17 SLP872 P0000 60000 T00390017 55001
PFKW 220156Z AUTO 03009G19KT 10SM SCT095 04/01 A2915 RMK AO2 SLP872 T00440011
PFKW 220056Z AUTO 03013G18KT 10SM OVC080 04/01 A2915 RMK AO2 SLP870 T00390011
PFKW 212356Z AUTO 04010G17KT 10SM OVC070 03/01 A2916 RMK AO2 RAE32 SLP873 P0000 60000 T00330011 10033 20011 58002
PFKW 212156Z AUTO 03015G20KT 10SM OVC075 03/00 A2916 RMK AO2 SLP875 T00280000
PFKW 212056Z AUTO 03013G21KT 10SM CLR 02/M01 A2916 RMK AO2 SLP875 T00221006 58005 FZRANO
PFKW 211956Z AUTO 03013G21KT 10SM SCT095 02/M01 A2917 RMK AO2 SLP878 T00221006 FZRANO
PFKW 211856Z AUTO 02012KT 10SM BKN100 01/M01 A2918 RMK AO2 SLP881 T00111006 FZRANO
PFKW 211756Z AUTO 03011G19KT 10SM BKN085 02/00 A2918 RMK AO2 SLP880 T00170000 10022 20017 55001 FZRANO
PFKW 211656Z AUTO 03015G20KT 10SM SCT010 OVC095 02/00 A2918 RMK AO2 SLP879 T00170000 FZRANO
PFKW 211556Z AUTO 02014G19KT 10SM BKN095 02/00 A2917 RMK AO2 SLP878 T00170000 FZRANO
PFKW 211541Z AUTO 02014G19KT 10SM SCT010 BKN090 02/00 A2918 RMK AO2 FZRANO
PFKW 211456Z AUTO 02014KT 10SM OVC010 02/00 A2918 RMK AO2 SLP881 T00170000 58009 FZRANO
PFKW 211356Z AUTO 02018G23KT 10SM BKN010 BKN065 OVC120 02/00 A2920 RMK AO2 SLP886 T00170000 FZRANO
PFKW 211256Z AUTO 02012G19KT 10SM OVC075 02/00 A2921 RMK AO2 SLP891 T00170000 FZRANO
PFKW 211156Z AUTO 02014G19KT 10SM OVC070 02/00 A2922 RMK AO2 SLP894 T00220000 10039 20022 56023 FZRANO
PFKW 211056Z AUTO 02011KT 10SM OVC100 02/00 A2924 RMK AO2 SLP900 T00220000 FZRANO
PFKW 210956Z AUTO 02011G16KT 10SM OVC090 02/00 A2927 RMK AO2 SLP910 T00220000 FZRANO
PFKW 210856Z AUTO 02011KT 10SM OVC085 03/00 A2929 RMK AO2 SLP918 T00280000 400501039 56016
PFKW 210756Z AUTO 04013KT 10SM FEW090 03/00 A2930 RMK AO2 SLP922 T00330000
PFKW 210656Z AUTO 03012KT 10SM CLR 03/00 A2931 RMK AO2 SLP927 T00330000
PFKW 210556Z AUTO 03010KT 10SM CLR 03/01 A2934 RMK AO2 SLP935 T00330006 10050 20028 58011
PFKW 210456Z AUTO 03009KT 10SM CLR 03/01 A2936 RMK AO2 SLP942 T00280006
PFKW 210356Z AUTO 03010KT 10SM CLR 03/01 A2937 RMK AO2 SLP946 T00330006
PFKW 210256Z AUTO 02009KT 10SM CLR 03/01 A2937 RMK AO2 SLP946 T00330011 58018
PFKW 210056Z AUTO 04009KT 10SM CLR 05/01 A2941 RMK AO2 SLP958 T00500011
PFKW 202356Z AUTO 03007KT 10SM FEW001 03/01 A2942 RMK AO2 SLP963 T00330011 10033 21033 58019
PFKW 202321Z AUTO 04006KT 10SM SCT004 02/01 A2944 RMK AO2 FZRANO
PFKW 202256Z AUTO 04008KT 10SM OVC004 01/00 A2944 RMK AO2 SLP971 T00060000 FZRANO